createdAt,value
2022-10-12T01:19:03.054Z,27.40
2022-10-12T01:29:25.952Z,28.87
2022-10-12T01:39:52.197Z,30.63
2022-10-12T01:49:54.527Z,29.27
2022-10-12T02:00:04.644Z,29.87
2022-10-12T02:10:11.092Z,30.57
2022-10-12T02:20:16.452Z,29.50
2022-10-12T02:30:21.219Z,30.57
2022-10-12T02:40:37.777Z,29.57
2022-10-12T02:50:39.558Z,28.80
2022-10-12T03:00:41.185Z,26.93
2022-10-12T03:10:42.636Z,24.87
2022-10-12T03:20:48.512Z,22.83
2022-10-12T03:30:51.163Z,22.67
2022-10-12T03:40:52.698Z,21.13
2022-10-12T03:50:54.127Z,22.87
2022-10-12T04:00:55.822Z,21.07
2022-10-12T04:10:57.542Z,22.63
2022-10-12T04:21:00.199Z,21.87
2022-10-12T04:31:02.006Z,21.80
2022-10-12T04:41:03.769Z,22.43
2022-10-12T04:51:06.032Z,23.57
2022-10-12T05:01:07.607Z,21.53
2022-10-12T05:11:09.157Z,20.33
2022-10-12T05:21:11.345Z,20.47
2022-10-12T05:31:13.835Z,20.50
2022-10-12T05:41:15.441Z,20.20
2022-10-12T05:51:17.001Z,20.27
2022-10-12T06:01:18.455Z,21.30
2022-10-12T06:11:20.497Z,20.20
2022-10-12T06:21:33.060Z,19.93
2022-10-12T06:31:35.329Z,19.03
2022-10-12T06:41:37.812Z,18.43
2022-10-12T06:51:43.022Z,17.17
2022-10-12T07:01:44.751Z,18.63
2022-10-12T07:11:46.253Z,16.47
2022-10-12T07:21:47.733Z,16.77
2022-10-12T07:31:51.966Z,15.23
2022-10-12T07:41:54.186Z,16.80
2022-10-12T07:51:55.715Z,15.93
2022-10-12T08:01:58.643Z,16.10
2022-10-12T08:12:00.224Z,16.20
2022-10-12T08:22:02.141Z,17.77
2022-10-12T08:32:03.770Z,15.80
2022-10-12T08:42:25.919Z,20.30
2022-10-12T08:52:38.732Z,20.10
2022-10-12T09:02:50.636Z,19.93
2022-10-12T09:13:10.598Z,21.73
2022-10-12T09:23:25.554Z,20.30
2022-10-12T09:33:35.436Z,21.47
2022-10-12T09:43:39.739Z,24.20
2022-10-12T09:53:48.573Z,22.47
2022-10-12T10:04:09.485Z,21.03
2022-10-12T10:14:15.250Z,20.93
2022-10-12T10:24:30.958Z,21.13
2022-10-12T10:34:32.410Z,22.53
2022-10-12T10:44:36.478Z,21.83
2022-10-12T10:54:38.693Z,21.50
2022-10-12T11:04:45.910Z,23.30
2022-10-12T11:14:55.297Z,23.77
2022-10-12T11:25:14.599Z,23.27
2022-10-12T11:35:28.111Z,23.00
2022-10-12T11:45:40.817Z,24.03
2022-10-12T11:55:51.014Z,25.50
2022-10-12T12:05:52.476Z,25.97
2022-10-12T12:15:53.868Z,21.70
2022-10-12T12:26:16.934Z,24.47
2022-10-12T12:36:29.238Z,27.53
2022-10-12T12:46:55.732Z,23.27
2022-10-12T12:57:03.582Z,24.00
2022-10-12T13:07:26.827Z,25.90
2022-10-12T13:18:00.169Z,23.67
2022-10-12T13:28:06.561Z,24.20
2022-10-12T13:38:14.176Z,22.90
2022-10-12T13:48:39.895Z,22.70
2022-10-12T13:58:42.776Z,21.80
2022-10-12T14:08:44.341Z,22.90
2022-10-12T14:18:47.671Z,22.57
2022-10-12T14:28:49.319Z,22.17
2022-10-12T14:38:51.531Z,22.77
2022-10-12T14:48:53.039Z,20.73
2022-10-12T14:58:54.642Z,21.93
2022-10-12T15:08:56.113Z,20.03
2022-10-12T15:18:57.568Z,21.27
2022-10-12T15:28:59.599Z,21.27
2022-10-12T15:39:01.044Z,21.10
2022-10-12T15:49:02.606Z,21.90
2022-10-12T15:59:04.162Z,21.17
2022-10-12T16:09:05.611Z,23.17
2022-10-12T16:19:07.546Z,26.40
2022-10-12T16:29:09.079Z,22.73
2022-10-12T16:39:10.743Z,26.37
2022-10-12T16:49:12.187Z,26.47
2022-10-12T16:59:13.638Z,26.13
2022-10-12T17:09:15.664Z,24.43
2022-10-12T17:19:28.542Z,26.33
2022-10-12T17:29:31.520Z,35.73
2022-10-12T17:39:36.502Z,34.03
2022-10-12T17:49:37.937Z,38.00
2022-10-12T17:59:39.529Z,40.57
2022-10-12T18:09:41.309Z,42.83
2022-10-12T18:19:42.784Z,42.47
2022-10-12T18:29:44.355Z,40.40
2022-10-12T18:39:45.853Z,39.57
2022-10-12T18:49:51.429Z,38.77
2022-10-12T18:59:55.919Z,37.87
2022-10-12T19:09:57.362Z,36.30
2022-10-12T19:19:59.466Z,34.97
2022-10-12T19:30:00.977Z,36.90
2022-10-12T19:40:07.454Z,37.10
2022-10-12T19:50:10.739Z,35.10
2022-10-12T20:00:13.098Z,36.53
2022-10-12T20:10:14.564Z,39.67
2022-10-12T20:20:19.084Z,39.13
2022-10-12T20:30:21.803Z,39.13
2022-10-12T20:40:23.905Z,39.30
2022-10-12T20:50:26.974Z,40.50
2022-10-12T21:00:31.541Z,41.97
2022-10-12T21:10:36.760Z,38.37
2022-10-12T21:20:40.811Z,42.37
2022-10-12T21:30:42.356Z,40.63
2022-10-12T21:40:44.294Z,43.63
2022-10-12T21:50:45.825Z,45.17
2022-10-12T22:00:49.712Z,42.77
2022-10-12T22:10:51.685Z,43.00
2022-10-12T22:20:53.122Z,40.17
2022-10-12T22:30:54.671Z,40.17
2022-10-12T22:41:13.611Z,40.40
2022-10-12T22:51:35.525Z,37.83
2022-10-12T23:01:37.048Z,37.20
2022-10-12T23:11:38.493Z,33.37
2022-10-12T23:21:39.996Z,33.87
2022-10-12T23:31:41.619Z,36.47
2022-10-12T23:41:43.116Z,35.67
2022-10-12T23:51:44.547Z,34.13
